sensor_id;sensor_type;location;lat;lon;timestamp;temperature;humidity
28823;DHT22;15961;54.678;9.110;2023-05-07T00:00:18;7.80;99.90
28823;DHT22;15961;54.678;9.110;2023-05-07T00:02:45;7.80;99.90
28823;DHT22;15961;54.678;9.110;2023-05-07T00:05:11;7.80;99.90
28823;DHT22;15961;54.678;9.110;2023-05-07T00:07:37;7.80;99.90
28823;DHT22;15961;54.678;9.110;2023-05-07T00:10:03;7.80;99.90
28823;DHT22;15961;54.678;9.110;2023-05-07T00:12:29;7.80;99.90
28823;DHT22;15961;54.678;9.110;2023-05-07T00:15:02;7.80;99.90
28823;DHT22;15961;54.678;9.110;2023-05-07T00:17:28;7.90;99.90
28823;DHT22;15961;54.678;9.110;2023-05-07T00:19:54;7.90;99.90
28823;DHT22;15961;54.678;9.110;2023-05-07T00:22:19;7.80;99.90
28823;DHT22;15961;54.678;9.110;2023-05-07T00:24:45;7.90;99.90
28823;DHT22;15961;54.678;9.110;2023-05-07T00:27:11;7.90;99.90
28823;DHT22;15961;54.678;9.110;2023-05-07T00:29:36;7.90;99.90
28823;DHT22;15961;54.678;9.110;2023-05-07T00:32:02;7.90;99.90
28823;DHT22;15961;54.678;9.110;2023-05-07T00:34:27;7.90;99.90
28823;DHT22;15961;54.678;9.110;2023-05-07T00:36:53;7.90;99.90
28823;DHT22;15961;54.678;9.110;2023-05-07T00:39:18;7.90;99.90
28823;DHT22;15961;54.678;9.110;2023-05-07T00:41:44;7.90;99.90
28823;DHT22;15961;54.678;9.110;2023-05-07T00:44:10;7.90;99.90
28823;DHT22;15961;54.678;9.110;2023-05-07T00:46:35;7.90;99.90
28823;DHT22;15961;54.678;9.110;2023-05-07T00:49:01;7.90;99.90
28823;DHT22;15961;54.678;9.110;2023-05-07T00:51:27;7.90;99.90
28823;DHT22;15961;54.678;9.110;2023-05-07T00:53:53;7.90;99.90
28823;DHT22;15961;54.678;9.110;2023-05-07T00:56:20;7.90;99.90
28823;DHT22;15961;54.678;9.110;2023-05-07T00:58:47;7.90;99.90
28823;DHT22;15961;54.678;9.110;2023-05-07T01:01:12;7.90;99.90
28823;DHT22;15961;54.678;9.110;2023-05-07T01:03:38;7.90;99.90
28823;DHT22;15961;54.678;9.110;2023-05-07T01:06:04;7.90;99.90
28823;DHT22;15961;54.678;9.110;2023-05-07T01:08:31;7.90;99.90
28823;DHT22;15961;54.678;9.110;2023-05-07T01:10:58;7.90;99.90
28823;DHT22;15961;54.678;9.110;2023-05-07T01:13:24;7.90;99.90
28823;DHT22;15961;54.678;9.110;2023-05-07T01:15:50;7.80;99.90
28823;DHT22;15961;54.678;9.110;2023-05-07T01:18:16;7.80;99.90
28823;DHT22;15961;54.678;9.110;2023-05-07T01:20:42;7.80;99.90
28823;DHT22;15961;54.678;9.110;2023-05-07T01:23:08;7.80;99.90
28823;DHT22;15961;54.678;9.110;2023-05-07T01:25:34;7.80;99.90
28823;DHT22;15961;54.678;9.110;2023-05-07T01:28:00;7.80;99.90
28823;DHT22;15961;54.678;9.110;2023-05-07T01:30:27;7.80;99.90
28823;DHT22;15961;54.678;9.110;2023-05-07T01:35:30;7.80;99.90
28823;DHT22;15961;54.678;9.110;2023-05-07T01:37:57;7.80;99.90
28823;DHT22;15961;54.678;9.110;2023-05-07T01:40:24;7.90;99.90
28823;DHT22;15961;54.678;9.110;2023-05-07T01:42:50;7.80;99.90
28823;DHT22;15961;54.678;9.110;2023-05-07T01:45:17;7.90;99.90
28823;DHT22;15961;54.678;9.110;2023-05-07T01:47:43;7.90;99.90
28823;DHT22;15961;54.678;9.110;2023-05-07T01:50:09;7.90;99.90
28823;DHT22;15961;54.678;9.110;2023-05-07T01:52:37;7.80;99.90
28823;DHT22;15961;54.678;9.110;2023-05-07T01:55:03;7.90;99.90
28823;DHT22;15961;54.678;9.110;2023-05-07T01:57:30;7.90;99.90
28823;DHT22;15961;54.678;9.110;2023-05-07T01:59:55;7.90;99.90
28823;DHT22;15961;54.678;9.110;2023-05-07T02:02:21;7.90;99.90
28823;DHT22;15961;54.678;9.110;2023-05-07T02:04:46;7.90;99.90
28823;DHT22;15961;54.678;9.110;2023-05-07T02:07:12;7.90;99.90
28823;DHT22;15961;54.678;9.110;2023-05-07T02:09:37;7.90;99.90
28823;DHT22;15961;54.678;9.110;2023-05-07T02:12:03;7.90;99.90
28823;DHT22;15961;54.678;9.110;2023-05-07T02:14:29;7.90;99.90
28823;DHT22;15961;54.678;9.110;2023-05-07T02:16:54;7.90;99.90
28823;DHT22;15961;54.678;9.110;2023-05-07T02:19:20;7.90;99.90
28823;DHT22;15961;54.678;9.110;2023-05-07T02:21:46;7.90;99.90
28823;DHT22;15961;54.678;9.110;2023-05-07T02:24:12;7.90;99.90
28823;DHT22;15961;54.678;9.110;2023-05-07T02:26:39;7.90;99.90
28823;DHT22;15961;54.678;9.110;2023-05-07T02:29:04;7.90;99.90
28823;DHT22;15961;54.678;9.110;2023-05-07T02:31:30;7.90;99.90
28823;DHT22;15961;54.678;9.110;2023-05-07T02:33:56;7.90;99.90
28823;DHT22;15961;54.678;9.110;2023-05-07T02:36:21;8.00;99.90
28823;DHT22;15961;54.678;9.110;2023-05-07T02:38:47;8.00;99.90
28823;DHT22;15961;54.678;9.110;2023-05-07T02:41:12;8.00;99.90
28823;DHT22;15961;54.678;9.110;2023-05-07T02:43:38;8.00;99.90
28823;DHT22;15961;54.678;9.110;2023-05-07T02:46:05;8.00;99.90
28823;DHT22;15961;54.678;9.110;2023-05-07T02:48:31;8.00;99.90
28823;DHT22;15961;54.678;9.110;2023-05-07T02:50:57;8.00;99.90
28823;DHT22;15961;54.678;9.110;2023-05-07T02:53:22;8.00;99.90
28823;DHT22;15961;54.678;9.110;2023-05-07T02:55:50;8.00;99.90
28823;DHT22;15961;54.678;9.110;2023-05-07T02:58:16;8.00;99.90
28823;DHT22;15961;54.678;9.110;2023-05-07T03:00:41;8.10;99.90
28823;DHT22;15961;54.678;9.110;2023-05-07T03:03:07;8.10;99.90
28823;DHT22;15961;54.678;9.110;2023-05-07T03:05:33;8.10;99.90
28823;DHT22;15961;54.678;9.110;2023-05-07T03:07:59;8.10;99.90
28823;DHT22;15961;54.678;9.110;2023-05-07T03:10:24;8.10;99.90
28823;DHT22;15961;54.678;9.110;2023-05-07T03:12:50;8.10;99.90
28823;DHT22;15961;54.678;9.110;2023-05-07T03:15:16;8.10;99.90
28823;DHT22;15961;54.678;9.110;2023-05-07T03:17:42;8.10;99.90
28823;DHT22;15961;54.678;9.110;2023-05-07T03:20:08;8.10;99.90
28823;DHT22;15961;54.678;9.110;2023-05-07T03:22:34;8.10;99.90
28823;DHT22;15961;54.678;9.110;2023-05-07T03:25:00;8.10;99.90
28823;DHT22;15961;54.678;9.110;2023-05-07T03:27:25;8.10;99.90
28823;DHT22;15961;54.678;9.110;2023-05-07T03:29:51;8.10;99.90
28823;DHT22;15961;54.678;9.110;2023-05-07T03:32:16;8.10;99.90
28823;DHT22;15961;54.678;9.110;2023-05-07T03:34:42;8.10;99.90
28823;DHT22;15961;54.678;9.110;2023-05-07T03:37:07;8.10;99.90
28823;DHT22;15961;54.678;9.110;2023-05-07T03:39:33;8.20;99.90
28823;DHT22;15961;54.678;9.110;2023-05-07T03:41:58;8.20;99.90
28823;DHT22;15961;54.678;9.110;2023-05-07T03:44:24;8.20;99.90
28823;DHT22;15961;54.678;9.110;2023-05-07T03:46:50;8.20;99.90
28823;DHT22;15961;54.678;9.110;2023-05-07T03:49:15;8.20;99.90
28823;DHT22;15961;54.678;9.110;2023-05-07T03:51:41;8.20;99.90
28823;DHT22;15961;54.678;9.110;2023-05-07T03:54:07;8.10;99.90
28823;DHT22;15961;54.678;9.110;2023-05-07T03:56:32;8.20;99.90
28823;DHT22;15961;54.678;9.110;2023-05-07T03:58:58;8.20;99.90
28823;DHT22;15961;54.678;9.110;2023-05-07T04:01:23;8.20;99.90
28823;DHT22;15961;54.678;9.110;2023-05-07T04:03:49;8.20;99.90
28823;DHT22;15961;54.678;9.110;2023-05-07T04:06:16;8.20;99.90
28823;DHT22;15961;54.678;9.110;2023-05-07T04:08:42;8.10;99.90
28823;DHT22;15961;54.678;9.110;2023-05-07T04:11:08;8.10;99.90
28823;DHT22;15961;54.678;9.110;2023-05-07T04:13:33;8.20;99.90
28823;DHT22;15961;54.678;9.110;2023-05-07T04:16:01;8.20;99.90
28823;DHT22;15961;54.678;9.110;2023-05-07T04:18:27;8.20;99.90
28823;DHT22;15961;54.678;9.110;2023-05-07T04:20:53;8.20;99.90
28823;DHT22;15961;54.678;9.110;2023-05-07T04:23:18;8.20;99.90
28823;DHT22;15961;54.678;9.110;2023-05-07T04:25:44;8.10;99.90
28823;DHT22;15961;54.678;9.110;2023-05-07T04:28:10;8.20;99.90
28823;DHT22;15961;54.678;9.110;2023-05-07T04:30:36;8.10;99.90
28823;DHT22;15961;54.678;9.110;2023-05-07T04:33:02;8.10;99.90
28823;DHT22;15961;54.678;9.110;2023-05-07T04:35:28;8.20;99.90
28823;DHT22;15961;54.678;9.110;2023-05-07T04:37:53;8.10;99.90
28823;DHT22;15961;54.678;9.110;2023-05-07T04:40:19;8.20;99.90
28823;DHT22;15961;54.678;9.110;2023-05-07T04:42:44;8.20;99.90
28823;DHT22;15961;54.678;9.110;2023-05-07T04:45:10;8.20;99.90
28823;DHT22;15961;54.678;9.110;2023-05-07T04:47:36;8.20;99.90
28823;DHT22;15961;54.678;9.110;2023-05-07T04:50:01;8.30;99.90
28823;DHT22;15961;54.678;9.110;2023-05-07T04:52:27;8.30;99.90
28823;DHT22;15961;54.678;9.110;2023-05-07T04:54:53;8.30;99.90
28823;DHT22;15961;54.678;9.110;2023-05-07T04:57:18;8.30;99.90
28823;DHT22;15961;54.678;9.110;2023-05-07T04:59:44;8.30;99.90
28823;DHT22;15961;54.678;9.110;2023-05-07T05:02:10;8.40;99.90
28823;DHT22;15961;54.678;9.110;2023-05-07T05:04:36;8.40;99.90
28823;DHT22;15961;54.678;9.110;2023-05-07T05:07:02;8.40;99.90
28823;DHT22;15961;54.678;9.110;2023-05-07T05:09:30;8.40;99.90
28823;DHT22;15961;54.678;9.110;2023-05-07T05:11:55;8.50;99.90
28823;DHT22;15961;54.678;9.110;2023-05-07T05:14:21;8.50;99.90
28823;DHT22;15961;54.678;9.110;2023-05-07T05:16:47;8.50;99.90
28823;DHT22;15961;54.678;9.110;2023-05-07T05:19:12;8.50;99.90
28823;DHT22;15961;54.678;9.110;2023-05-07T05:21:38;8.50;99.90
28823;DHT22;15961;54.678;9.110;2023-05-07T05:24:03;8.60;99.90
28823;DHT22;15961;54.678;9.110;2023-05-07T05:26:29;8.50;99.90
28823;DHT22;15961;54.678;9.110;2023-05-07T05:28:54;8.60;99.90
28823;DHT22;15961;54.678;9.110;2023-05-07T05:31:20;8.60;99.90
28823;DHT22;15961;54.678;9.110;2023-05-07T05:33:46;8.60;99.90
28823;DHT22;15961;54.678;9.110;2023-05-07T05:36:12;8.60;99.90
28823;DHT22;15961;54.678;9.110;2023-05-07T05:38:38;8.70;99.90
28823;DHT22;15961;54.678;9.110;2023-05-07T05:41:04;8.70;99.90
28823;DHT22;15961;54.678;9.110;2023-05-07T05:43:30;8.70;99.90
28823;DHT22;15961;54.678;9.110;2023-05-07T05:45:56;8.70;99.90
28823;DHT22;15961;54.678;9.110;2023-05-07T05:48:22;8.70;99.90
28823;DHT22;15961;54.678;9.110;2023-05-07T05:50:48;8.80;99.90
28823;DHT22;15961;54.678;9.110;2023-05-07T05:53:13;8.80;99.90
28823;DHT22;15961;54.678;9.110;2023-05-07T05:55:39;8.90;99.90
28823;DHT22;15961;54.678;9.110;2023-05-07T05:58:05;8.90;99.90
28823;DHT22;15961;54.678;9.110;2023-05-07T06:00:30;9.00;99.90
28823;DHT22;15961;54.678;9.110;2023-05-07T06:02:56;9.00;99.90
28823;DHT22;15961;54.678;9.110;2023-05-07T06:05:21;9.10;99.90
28823;DHT22;15961;54.678;9.110;2023-05-07T06:07:47;9.10;99.90
28823;DHT22;15961;54.678;9.110;2023-05-07T06:10:12;9.30;99.90
28823;DHT22;15961;54.678;9.110;2023-05-07T06:12:39;9.30;99.90
28823;DHT22;15961;54.678;9.110;2023-05-07T06:15:05;9.30;99.90
28823;DHT22;15961;54.678;9.110;2023-05-07T06:17:31;9.40;99.90
28823;DHT22;15961;54.678;9.110;2023-05-07T06:19:56;9.50;99.90
28823;DHT22;15961;54.678;9.110;2023-05-07T06:22:22;9.50;99.90
28823;DHT22;15961;54.678;9.110;2023-05-07T06:24:47;9.60;99.90
28823;DHT22;15961;54.678;9.110;2023-05-07T06:27:13;9.70;99.90
28823;DHT22;15961;54.678;9.110;2023-05-07T06:29:38;9.80;99.90
28823;DHT22;15961;54.678;9.110;2023-05-07T06:32:11;9.70;99.90
28823;DHT22;15961;54.678;9.110;2023-05-07T06:34:38;9.80;99.90
28823;DHT22;15961;54.678;9.110;2023-05-07T06:37:04;9.80;99.90
28823;DHT22;15961;54.678;9.110;2023-05-07T06:39:30;9.90;99.90
28823;DHT22;15961;54.678;9.110;2023-05-07T06:41:55;9.80;99.90
28823;DHT22;15961;54.678;9.110;2023-05-07T06:44:21;9.90;99.90
28823;DHT22;15961;54.678;9.110;2023-05-07T06:46:47;9.90;99.90
28823;DHT22;15961;54.678;9.110;2023-05-07T06:49:13;9.90;99.90
28823;DHT22;15961;54.678;9.110;2023-05-07T06:51:38;10.00;99.90
28823;DHT22;15961;54.678;9.110;2023-05-07T06:54:04;10.00;99.90
28823;DHT22;15961;54.678;9.110;2023-05-07T06:56:30;9.90;99.90
28823;DHT22;15961;54.678;9.110;2023-05-07T06:58:56;9.90;99.90
28823;DHT22;15961;54.678;9.110;2023-05-07T07:01:21;9.90;99.90
28823;DHT22;15961;54.678;9.110;2023-05-07T07:03:47;10.00;99.90
28823;DHT22;15961;54.678;9.110;2023-05-07T07:06:13;10.00;99.90
28823;DHT22;15961;54.678;9.110;2023-05-07T07:08:38;10.00;99.90
28823;DHT22;15961;54.678;9.110;2023-05-07T07:11:05;10.00;99.90
28823;DHT22;15961;54.678;9.110;2023-05-07T07:13:31;10.00;99.90
28823;DHT22;15961;54.678;9.110;2023-05-07T07:15:56;10.10;99.90
28823;DHT22;15961;54.678;9.110;2023-05-07T07:18:22;10.00;99.90
28823;DHT22;15961;54.678;9.110;2023-05-07T07:20:47;10.00;99.90
28823;DHT22;15961;54.678;9.110;2023-05-07T07:23:13;10.00;99.90
28823;DHT22;15961;54.678;9.110;2023-05-07T07:25:39;10.00;99.90
28823;DHT22;15961;54.678;9.110;2023-05-07T07:28:05;10.00;99.90
28823;DHT22;15961;54.678;9.110;2023-05-07T07:30:31;10.00;99.90
28823;DHT22;15961;54.678;9.110;2023-05-07T07:32:56;10.00;99.90
28823;DHT22;15961;54.678;9.110;2023-05-07T07:35:28;9.90;99.90
28823;DHT22;15961;54.678;9.110;2023-05-07T07:37:53;10.00;99.90
28823;DHT22;15961;54.678;9.110;2023-05-07T07:40:19;10.10;99.90
28823;DHT22;15961;54.678;9.110;2023-05-07T07:42:44;10.20;99.90
28823;DHT22;15961;54.678;9.110;2023-05-07T07:45:10;10.40;99.90
28823;DHT22;15961;54.678;9.110;2023-05-07T07:47:36;10.50;99.90
28823;DHT22;15961;54.678;9.110;2023-05-07T07:50:01;10.60;99.90
28823;DHT22;15961;54.678;9.110;2023-05-07T07:52:27;10.70;99.90
28823;DHT22;15961;54.678;9.110;2023-05-07T07:54:52;10.80;99.90
28823;DHT22;15961;54.678;9.110;2023-05-07T07:57:18;10.90;99.90
28823;DHT22;15961;54.678;9.110;2023-05-07T07:59:43;11.00;99.90
28823;DHT22;15961;54.678;9.110;2023-05-07T08:02:09;11.10;99.90
28823;DHT22;15961;54.678;9.110;2023-05-07T08:04:34;11.20;99.90
28823;DHT22;15961;54.678;9.110;2023-05-07T08:07:00;11.20;99.90
28823;DHT22;15961;54.678;9.110;2023-05-07T08:09:26;11.20;99.90
28823;DHT22;15961;54.678;9.110;2023-05-07T08:11:52;11.30;99.90
28823;DHT22;15961;54.678;9.110;2023-05-07T08:14:18;11.40;99.90
28823;DHT22;15961;54.678;9.110;2023-05-07T08:16:43;11.40;99.90
28823;DHT22;15961;54.678;9.110;2023-05-07T08:19:09;11.60;99.90
28823;DHT22;15961;54.678;9.110;2023-05-07T08:21:39;11.70;99.90
28823;DHT22;15961;54.678;9.110;2023-05-07T08:24:05;11.90;99.90
28823;DHT22;15961;54.678;9.110;2023-05-07T08:26:30;12.00;99.90
28823;DHT22;15961;54.678;9.110;2023-05-07T08:28:56;12.20;99.90
28823;DHT22;15961;54.678;9.110;2023-05-07T08:31:21;12.20;99.90
28823;DHT22;15961;54.678;9.110;2023-05-07T08:33:47;12.20;99.90
28823;DHT22;15961;54.678;9.110;2023-05-07T08:36:13;12.20;99.90
28823;DHT22;15961;54.678;9.110;2023-05-07T08:38:38;12.30;99.90
28823;DHT22;15961;54.678;9.110;2023-05-07T08:41:06;12.20;99.90
28823;DHT22;15961;54.678;9.110;2023-05-07T08:43:33;12.20;99.90
28823;DHT22;15961;54.678;9.110;2023-05-07T08:46:01;12.30;99.90
28823;DHT22;15961;54.678;9.110;2023-05-07T08:48:29;12.20;99.90
28823;DHT22;15961;54.678;9.110;2023-05-07T08:50:55;12.30;99.90
28823;DHT22;15961;54.678;9.110;2023-05-07T08:53:21;12.30;99.90
28823;DHT22;15961;54.678;9.110;2023-05-07T08:55:47;12.40;99.90
28823;DHT22;15961;54.678;9.110;2023-05-07T08:58:13;12.40;99.90
28823;DHT22;15961;54.678;9.110;2023-05-07T09:00:40;12.40;99.90
28823;DHT22;15961;54.678;9.110;2023-05-07T09:03:06;12.50;99.90
28823;DHT22;15961;54.678;9.110;2023-05-07T09:05:32;12.70;99.90
28823;DHT22;15961;54.678;9.110;2023-05-07T09:08:02;12.70;99.90
28823;DHT22;15961;54.678;9.110;2023-05-07T09:10:28;12.70;99.90
28823;DHT22;15961;54.678;9.110;2023-05-07T09:12:54;12.70;99.90
28823;DHT22;15961;54.678;9.110;2023-05-07T09:15:20;12.70;99.90
28823;DHT22;15961;54.678;9.110;2023-05-07T09:17:45;12.70;99.90
28823;DHT22;15961;54.678;9.110;2023-05-07T09:20:11;12.60;99.90
28823;DHT22;15961;54.678;9.110;2023-05-07T09:22:37;12.60;99.90
28823;DHT22;15961;54.678;9.110;2023-05-07T09:25:05;12.70;99.90
28823;DHT22;15961;54.678;9.110;2023-05-07T09:27:31;12.80;99.90
28823;DHT22;15961;54.678;9.110;2023-05-07T09:29:56;12.80;99.90
28823;DHT22;15961;54.678;9.110;2023-05-07T09:32:22;12.90;99.90
28823;DHT22;15961;54.678;9.110;2023-05-07T09:34:47;13.00;99.90
28823;DHT22;15961;54.678;9.110;2023-05-07T09:37:13;13.10;99.90
28823;DHT22;15961;54.678;9.110;2023-05-07T09:39:43;13.20;99.90
28823;DHT22;15961;54.678;9.110;2023-05-07T09:42:10;13.60;99.90
28823;DHT22;15961;54.678;9.110;2023-05-07T09:44:37;13.70;99.90
28823;DHT22;15961;54.678;9.110;2023-05-07T09:47:07;13.80;99.90
28823;DHT22;15961;54.678;9.110;2023-05-07T09:49:36;13.90;99.90
28823;DHT22;15961;54.678;9.110;2023-05-07T09:52:04;13.90;99.90
28823;DHT22;15961;54.678;9.110;2023-05-07T09:54:32;13.90;99.90
28823;DHT22;15961;54.678;9.110;2023-05-07T09:56:59;14.20;99.90
28823;DHT22;15961;54.678;9.110;2023-05-07T09:59:28;14.30;99.90
28823;DHT22;15961;54.678;9.110;2023-05-07T10:01:57;14.30;99.90
28823;DHT22;15961;54.678;9.110;2023-05-07T10:04:25;14.40;99.90
28823;DHT22;15961;54.678;9.110;2023-05-07T10:06:51;14.40;99.90
28823;DHT22;15961;54.678;9.110;2023-05-07T10:09:17;14.40;99.90
28823;DHT22;15961;54.678;9.110;2023-05-07T10:11:43;14.40;99.90
28823;DHT22;15961;54.678;9.110;2023-05-07T10:14:10;14.40;99.90
28823;DHT22;15961;54.678;9.110;2023-05-07T10:16:36;14.40;99.90
28823;DHT22;15961;54.678;9.110;2023-05-07T10:19:03;14.60;99.90
28823;DHT22;15961;54.678;9.110;2023-05-07T10:21:30;14.70;99.90
28823;DHT22;15961;54.678;9.110;2023-05-07T10:24:04;14.70;99.90
28823;DHT22;15961;54.678;9.110;2023-05-07T10:26:36;14.80;99.90
28823;DHT22;15961;54.678;9.110;2023-05-07T10:29:07;15.10;99.90
28823;DHT22;15961;54.678;9.110;2023-05-07T10:32:01;15.10;99.90
28823;DHT22;15961;54.678;9.110;2023-05-07T10:34:41;15.30;99.90
28823;DHT22;15961;54.678;9.110;2023-05-07T10:37:09;15.20;99.90
28823;DHT22;15961;54.678;9.110;2023-05-07T10:39:35;15.30;99.90
28823;DHT22;15961;54.678;9.110;2023-05-07T10:42:12;15.20;99.90
28823;DHT22;15961;54.678;9.110;2023-05-07T10:44:38;15.30;99.90
28823;DHT22;15961;54.678;9.110;2023-05-07T10:47:11;15.40;99.90
28823;DHT22;15961;54.678;9.110;2023-05-07T10:52:13;15.90;99.90
28823;DHT22;15961;54.678;9.110;2023-05-07T10:54:42;15.90;99.90
28823;DHT22;15961;54.678;9.110;2023-05-07T10:57:33;15.70;99.90
28823;DHT22;15961;54.678;9.110;2023-05-07T11:00:01;15.70;99.90
28823;DHT22;15961;54.678;9.110;2023-05-07T11:03:07;16.10;99.90
28823;DHT22;15961;54.678;9.110;2023-05-07T11:05:33;16.40;99.90
28823;DHT22;15961;54.678;9.110;2023-05-07T11:08:00;16.60;99.90
28823;DHT22;15961;54.678;9.110;2023-05-07T11:13:14;16.70;99.90
28823;DHT22;15961;54.678;9.110;2023-05-07T11:15:42;16.60;99.90
28823;DHT22;15961;54.678;9.110;2023-05-07T11:18:10;17.00;99.90
28823;DHT22;15961;54.678;9.110;2023-05-07T11:20:59;16.80;99.90
28823;DHT22;15961;54.678;9.110;2023-05-07T11:26:04;16.40;99.90
28823;DHT22;15961;54.678;9.110;2023-05-07T11:28:32;16.30;99.90
28823;DHT22;15961;54.678;9.110;2023-05-07T11:31:02;16.20;99.90
28823;DHT22;15961;54.678;9.110;2023-05-07T11:33:29;16.10;99.90
28823;DHT22;15961;54.678;9.110;2023-05-07T11:35:55;16.00;99.90
28823;DHT22;15961;54.678;9.110;2023-05-07T11:38:21;16.00;99.90
28823;DHT22;15961;54.678;9.110;2023-05-07T11:40:50;16.30;99.90
28823;DHT22;15961;54.678;9.110;2023-05-07T11:43:16;16.20;99.90
28823;DHT22;15961;54.678;9.110;2023-05-07T11:45:42;16.90;99.90
28823;DHT22;15961;54.678;9.110;2023-05-07T11:48:07;17.60;99.90
28823;DHT22;15961;54.678;9.110;2023-05-07T11:50:33;18.10;99.90
28823;DHT22;15961;54.678;9.110;2023-05-07T11:52:58;18.20;99.90
28823;DHT22;15961;54.678;9.110;2023-05-07T11:55:24;18.60;99.90
28823;DHT22;15961;54.678;9.110;2023-05-07T11:57:51;19.20;99.90
28823;DHT22;15961;54.678;9.110;2023-05-07T12:00:17;19.10;99.90
28823;DHT22;15961;54.678;9.110;2023-05-07T12:02:45;18.90;99.90
28823;DHT22;15961;54.678;9.110;2023-05-07T12:05:10;18.90;99.90
28823;DHT22;15961;54.678;9.110;2023-05-07T12:07:36;19.40;99.90
28823;DHT22;15961;54.678;9.110;2023-05-07T12:10:08;20.10;99.90
28823;DHT22;15961;54.678;9.110;2023-05-07T12:12:40;19.50;99.90
28823;DHT22;15961;54.678;9.110;2023-05-07T12:15:07;19.60;99.90
28823;DHT22;15961;54.678;9.110;2023-05-07T12:17:33;19.50;99.90
28823;DHT22;15961;54.678;9.110;2023-05-07T12:20:00;19.50;99.90
28823;DHT22;15961;54.678;9.110;2023-05-07T12:22:26;19.40;99.90
28823;DHT22;15961;54.678;9.110;2023-05-07T12:24:58;19.60;99.90
28823;DHT22;15961;54.678;9.110;2023-05-07T12:27:24;20.00;99.90
28823;DHT22;15961;54.678;9.110;2023-05-07T12:29:50;19.90;99.90
28823;DHT22;15961;54.678;9.110;2023-05-07T12:32:22;20.10;99.90
28823;DHT22;15961;54.678;9.110;2023-05-07T12:34:51;19.80;99.90
28823;DHT22;15961;54.678;9.110;2023-05-07T12:37:23;19.70;99.90
28823;DHT22;15961;54.678;9.110;2023-05-07T12:39:50;19.80;99.90
28823;DHT22;15961;54.678;9.110;2023-05-07T12:42:33;20.10;99.90
28823;DHT22;15961;54.678;9.110;2023-05-07T12:45:00;19.90;99.90
28823;DHT22;15961;54.678;9.110;2023-05-07T12:47:32;20.20;99.90
28823;DHT22;15961;54.678;9.110;2023-05-07T12:49:59;20.40;99.90
28823;DHT22;15961;54.678;9.110;2023-05-07T12:52:24;20.40;99.90
28823;DHT22;15961;54.678;9.110;2023-05-07T12:54:50;20.10;99.90
28823;DHT22;15961;54.678;9.110;2023-05-07T12:57:19;20.50;99.90
28823;DHT22;15961;54.678;9.110;2023-05-07T12:59:45;20.60;99.90
28823;DHT22;15961;54.678;9.110;2023-05-07T13:02:11;20.80;99.90
28823;DHT22;15961;54.678;9.110;2023-05-07T13:04:36;21.60;99.90
28823;DHT22;15961;54.678;9.110;2023-05-07T13:07:02;21.90;99.90
28823;DHT22;15961;54.678;9.110;2023-05-07T13:09:28;21.10;99.90
28823;DHT22;15961;54.678;9.110;2023-05-07T13:11:54;21.20;99.90
28823;DHT22;15961;54.678;9.110;2023-05-07T13:14:20;21.60;99.90
28823;DHT22;15961;54.678;9.110;2023-05-07T13:16:46;22.30;99.90
28823;DHT22;15961;54.678;9.110;2023-05-07T13:19:12;22.90;99.90
28823;DHT22;15961;54.678;9.110;2023-05-07T13:21:37;22.90;99.90
28823;DHT22;15961;54.678;9.110;2023-05-07T13:24:03;23.00;99.90
28823;DHT22;15961;54.678;9.110;2023-05-07T13:26:30;22.30;99.90
28823;DHT22;15961;54.678;9.110;2023-05-07T13:28:56;22.00;99.90
28823;DHT22;15961;54.678;9.110;2023-05-07T13:31:22;22.40;99.90
28823;DHT22;15961;54.678;9.110;2023-05-07T13:33:47;22.70;99.90
28823;DHT22;15961;54.678;9.110;2023-05-07T13:36:13;23.20;99.90
28823;DHT22;15961;54.678;9.110;2023-05-07T13:38:41;23.10;99.90
28823;DHT22;15961;54.678;9.110;2023-05-07T13:41:07;22.80;99.90
28823;DHT22;15961;54.678;9.110;2023-05-07T13:43:32;21.90;99.90
28823;DHT22;15961;54.678;9.110;2023-05-07T13:45:59;22.10;99.90
28823;DHT22;15961;54.678;9.110;2023-05-07T13:48:25;21.80;99.90
28823;DHT22;15961;54.678;9.110;2023-05-07T13:50:50;21.90;99.90
28823;DHT22;15961;54.678;9.110;2023-05-07T13:53:16;22.50;99.90
28823;DHT22;15961;54.678;9.110;2023-05-07T13:55:43;22.90;99.90
28823;DHT22;15961;54.678;9.110;2023-05-07T13:58:09;23.20;99.90
28823;DHT22;15961;54.678;9.110;2023-05-07T14:00:35;23.40;99.90
28823;DHT22;15961;54.678;9.110;2023-05-07T14:03:01;23.50;99.90
28823;DHT22;15961;54.678;9.110;2023-05-07T14:05:27;23.30;99.90
28823;DHT22;15961;54.678;9.110;2023-05-07T14:07:54;23.10;99.90
28823;DHT22;15961;54.678;9.110;2023-05-07T14:10:20;23.70;99.90
28823;DHT22;15961;54.678;9.110;2023-05-07T14:12:46;23.50;99.90
28823;DHT22;15961;54.678;9.110;2023-05-07T14:15:12;23.50;99.90
28823;DHT22;15961;54.678;9.110;2023-05-07T14:17:38;24.00;99.90
28823;DHT22;15961;54.678;9.110;2023-05-07T14:20:04;23.90;99.90
28823;DHT22;15961;54.678;9.110;2023-05-07T14:22:31;23.20;99.90
28823;DHT22;15961;54.678;9.110;2023-05-07T14:24:57;23.20;99.90
28823;DHT22;15961;54.678;9.110;2023-05-07T14:27:22;23.00;99.90
28823;DHT22;15961;54.678;9.110;2023-05-07T14:29:48;23.20;99.90
28823;DHT22;15961;54.678;9.110;2023-05-07T14:32:19;23.20;99.90
28823;DHT22;15961;54.678;9.110;2023-05-07T14:34:45;23.40;99.90
28823;DHT22;15961;54.678;9.110;2023-05-07T14:37:11;23.60;99.90
28823;DHT22;15961;54.678;9.110;2023-05-07T14:39:37;23.70;99.90
28823;DHT22;15961;54.678;9.110;2023-05-07T14:42:02;23.50;99.90
28823;DHT22;15961;54.678;9.110;2023-05-07T14:44:28;23.20;99.90
28823;DHT22;15961;54.678;9.110;2023-05-07T14:46:54;23.10;99.90
28823;DHT22;15961;54.678;9.110;2023-05-07T14:49:20;23.20;99.90
28823;DHT22;15961;54.678;9.110;2023-05-07T14:51:46;23.00;99.90
28823;DHT22;15961;54.678;9.110;2023-05-07T14:54:13;23.00;99.90
28823;DHT22;15961;54.678;9.110;2023-05-07T14:56:39;23.00;99.90
28823;DHT22;15961;54.678;9.110;2023-05-07T14:59:04;22.90;99.90
28823;DHT22;15961;54.678;9.110;2023-05-07T15:01:30;22.90;99.90
28823;DHT22;15961;54.678;9.110;2023-05-07T15:03:55;23.00;99.90
28823;DHT22;15961;54.678;9.110;2023-05-07T15:06:21;22.80;99.90
28823;DHT22;15961;54.678;9.110;2023-05-07T15:08:47;23.00;99.90
28823;DHT22;15961;54.678;9.110;2023-05-07T15:11:13;22.90;99.90
28823;DHT22;15961;54.678;9.110;2023-05-07T15:13:39;23.20;99.90
28823;DHT22;15961;54.678;9.110;2023-05-07T15:16:05;23.20;99.90
28823;DHT22;15961;54.678;9.110;2023-05-07T15:18:30;22.80;99.90
28823;DHT22;15961;54.678;9.110;2023-05-07T15:20:56;22.80;99.90
28823;DHT22;15961;54.678;9.110;2023-05-07T15:23:23;22.90;99.90
28823;DHT22;15961;54.678;9.110;2023-05-07T15:25:48;22.70;99.90
28823;DHT22;15961;54.678;9.110;2023-05-07T15:28:14;22.60;99.90
28823;DHT22;15961;54.678;9.110;2023-05-07T15:30:39;22.60;99.90
28823;DHT22;15961;54.678;9.110;2023-05-07T15:33:05;22.50;99.90
28823;DHT22;15961;54.678;9.110;2023-05-07T15:35:31;22.60;99.90
28823;DHT22;15961;54.678;9.110;2023-05-07T15:37:56;22.50;99.90
28823;DHT22;15961;54.678;9.110;2023-05-07T15:40:22;22.50;99.90
28823;DHT22;15961;54.678;9.110;2023-05-07T15:42:48;22.40;99.90